sensor_id;sensor_type;location;lat;lon;timestamp;P1;durP1;ratioP1;P2;durP2;ratioP2
68108;SDS011;54893;49.864;19.084;2023-08-21T00:04:16;21.33;;;13.93;;
68108;SDS011;54893;49.864;19.084;2023-08-21T00:09:16;22.63;;;13.60;;
68108;SDS011;54893;49.864;19.084;2023-08-21T00:14:16;25.37;;;14.73;;
68108;SDS011;54893;49.864;19.084;2023-08-21T00:19:17;21.95;;;14.15;;
68108;SDS011;54893;49.864;19.084;2023-08-21T00:24:17;22.70;;;14.37;;
68108;SDS011;54893;49.864;19.084;2023-08-21T00:29:17;25.67;;;14.68;;
68108;SDS011;54893;49.864;19.084;2023-08-21T00:34:18;24.10;;;15.23;;
68108;SDS011;54893;49.864;19.084;2023-08-21T00:39:18;27.80;;;15.53;;
68108;SDS011;54893;49.864;19.084;2023-08-21T00:44:18;25.63;;;14.30;;
68108;SDS011;54893;49.864;19.084;2023-08-21T00:49:19;25.03;;;13.60;;
68108;SDS011;54893;49.864;19.084;2023-08-21T00:54:20;22.77;;;14.13;;
68108;SDS011;54893;49.864;19.084;2023-08-21T00:59:21;25.60;;;13.93;;
68108;SDS011;54893;49.864;19.084;2023-08-21T01:04:22;19.38;;;12.55;;
68108;SDS011;54893;49.864;19.084;2023-08-21T01:09:27;20.23;;;13.37;;
68108;SDS011;54893;49.864;19.084;2023-08-21T01:14:36;21.95;;;14.23;;
68108;SDS011;54893;49.864;19.084;2023-08-21T01:20:04;20.80;;;13.73;;
68108;SDS011;54893;49.864;19.084;2023-08-21T01:25:08;21.33;;;13.30;;
68108;SDS011;54893;49.864;19.084;2023-08-21T01:30:09;22.83;;;13.70;;
68108;SDS011;54893;49.864;19.084;2023-08-21T01:35:10;21.27;;;13.55;;
68108;SDS011;54893;49.864;19.084;2023-08-21T01:40:11;24.33;;;13.37;;
68108;SDS011;54893;49.864;19.084;2023-08-21T01:45:12;22.93;;;13.97;;
68108;SDS011;54893;49.864;19.084;2023-08-21T01:50:12;21.80;;;15.07;;
68108;SDS011;54893;49.864;19.084;2023-08-21T01:55:13;22.77;;;13.93;;
68108;SDS011;54893;49.864;19.084;2023-08-21T02:00:13;21.40;;;13.63;;
68108;SDS011;54893;49.864;19.084;2023-08-21T02:05:14;24.17;;;14.90;;
68108;SDS011;54893;49.864;19.084;2023-08-21T02:10:14;21.70;;;14.17;;
68108;SDS011;54893;49.864;19.084;2023-08-21T02:15:14;22.08;;;14.07;;
68108;SDS011;54893;49.864;19.084;2023-08-21T02:20:15;21.90;;;14.07;;
68108;SDS011;54893;49.864;19.084;2023-08-21T02:25:15;24.53;;;14.07;;
68108;SDS011;54893;49.864;19.084;2023-08-21T02:30:16;22.30;;;13.77;;
68108;SDS011;54893;49.864;19.084;2023-08-21T02:35:16;35.40;;;14.40;;
68108;SDS011;54893;49.864;19.084;2023-08-21T02:40:17;22.13;;;14.32;;
68108;SDS011;54893;49.864;19.084;2023-08-21T02:45:17;23.83;;;14.83;;
68108;SDS011;54893;49.864;19.084;2023-08-21T02:50:19;21.90;;;13.70;;
68108;SDS011;54893;49.864;19.084;2023-08-21T02:55:19;25.47;;;14.97;;
68108;SDS011;54893;49.864;19.084;2023-08-21T03:00:20;25.40;;;15.65;;
68108;SDS011;54893;49.864;19.084;2023-08-21T03:05:21;25.93;;;14.60;;
68108;SDS011;54893;49.864;19.084;2023-08-21T03:10:22;24.47;;;14.57;;
68108;SDS011;54893;49.864;19.084;2023-08-21T03:15:23;25.75;;;15.70;;
68108;SDS011;54893;49.864;19.084;2023-08-21T03:20:24;24.47;;;15.27;;
68108;SDS011;54893;49.864;19.084;2023-08-21T03:25:24;23.83;;;15.03;;
68108;SDS011;54893;49.864;19.084;2023-08-21T03:30:24;24.60;;;15.47;;
68108;SDS011;54893;49.864;19.084;2023-08-21T03:35:25;24.17;;;15.10;;
68108;SDS011;54893;49.864;19.084;2023-08-21T03:40:25;25.60;;;14.97;;
68108;SDS011;54893;49.864;19.084;2023-08-21T03:45:25;28.45;;;15.88;;
68108;SDS011;54893;49.864;19.084;2023-08-21T03:50:26;25.33;;;15.43;;
68108;SDS011;54893;49.864;19.084;2023-08-21T03:55:26;26.00;;;14.88;;
68108;SDS011;54893;49.864;19.084;2023-08-21T04:00:26;22.40;;;14.73;;
68108;SDS011;54893;49.864;19.084;2023-08-21T04:05:27;23.97;;;13.83;;
68108;SDS011;54893;49.864;19.084;2023-08-21T04:10:27;23.38;;;14.30;;
68108;SDS011;54893;49.864;19.084;2023-08-21T04:15:27;26.23;;;14.57;;
68108;SDS011;54893;49.864;19.084;2023-08-21T04:20:28;23.83;;;14.57;;
68108;SDS011;54893;49.864;19.084;2023-08-21T04:25:28;23.93;;;14.40;;
68108;SDS011;54893;49.864;19.084;2023-08-21T04:30:28;22.13;;;14.03;;
68108;SDS011;54893;49.864;19.084;2023-08-21T04:35:29;20.53;;;13.37;;
68108;SDS011;54893;49.864;19.084;2023-08-21T04:40:29;26.63;;;14.90;;
68108;SDS011;54893;49.864;19.084;2023-08-21T04:45:29;21.47;;;13.77;;
68108;SDS011;54893;49.864;19.084;2023-08-21T04:50:30;23.07;;;14.30;;
68108;SDS011;54893;49.864;19.084;2023-08-21T04:55:30;18.60;;;13.00;;
68108;SDS011;54893;49.864;19.084;2023-08-21T05:00:30;22.98;;;14.60;;
68108;SDS011;54893;49.864;19.084;2023-08-21T05:05:30;20.40;;;12.60;;
68108;SDS011;54893;49.864;19.084;2023-08-21T05:10:31;18.97;;;13.20;;
68108;SDS011;54893;49.864;19.084;2023-08-21T05:15:31;22.20;;;12.70;;
68108;SDS011;54893;49.864;19.084;2023-08-21T05:20:31;18.03;;;12.97;;
68108;SDS011;54893;49.864;19.084;2023-08-21T05:25:32;23.70;;;13.53;;
68108;SDS011;54893;49.864;19.084;2023-08-21T05:30:34;18.70;;;12.40;;
68108;SDS011;54893;49.864;19.084;2023-08-21T05:35:35;18.35;;;12.52;;
68108;SDS011;54893;49.864;19.084;2023-08-21T05:40:36;19.73;;;12.50;;
68108;SDS011;54893;49.864;19.084;2023-08-21T05:45:36;21.52;;;13.43;;
68108;SDS011;54893;49.864;19.084;2023-08-21T05:50:37;19.25;;;12.73;;
68108;SDS011;54893;49.864;19.084;2023-08-21T05:55:37;17.43;;;12.97;;
68108;SDS011;54893;49.864;19.084;2023-08-21T06:00:38;17.73;;;13.07;;
68108;SDS011;54893;49.864;19.084;2023-08-21T06:05:39;19.60;;;12.95;;
68108;SDS011;54893;49.864;19.084;2023-08-21T06:10:39;16.97;;;12.27;;
68108;SDS011;54893;49.864;19.084;2023-08-21T06:15:39;19.17;;;12.07;;
68108;SDS011;54893;49.864;19.084;2023-08-21T06:20:43;17.50;;;12.45;;
68108;SDS011;54893;49.864;19.084;2023-08-21T06:25:44;17.13;;;10.77;;
68108;SDS011;54893;49.864;19.084;2023-08-21T06:30:44;20.97;;;12.07;;
68108;SDS011;54893;49.864;19.084;2023-08-21T06:35:45;18.47;;;11.77;;
68108;SDS011;54893;49.864;19.084;2023-08-21T06:40:45;17.50;;;11.50;;
68108;SDS011;54893;49.864;19.084;2023-08-21T06:45:46;18.07;;;12.20;;
68108;SDS011;54893;49.864;19.084;2023-08-21T06:50:46;16.93;;;11.47;;
68108;SDS011;54893;49.864;19.084;2023-08-21T06:55:46;18.77;;;11.43;;
68108;SDS011;54893;49.864;19.084;2023-08-21T07:00:47;16.10;;;12.03;;
68108;SDS011;54893;49.864;19.084;2023-08-21T07:05:57;15.77;;;11.30;;
68108;SDS011;54893;49.864;19.084;2023-08-21T07:10:58;17.20;;;11.70;;
68108;SDS011;54893;49.864;19.084;2023-08-21T07:16:02;15.93;;;10.93;;
68108;SDS011;54893;49.864;19.084;2023-08-21T07:21:04;18.60;;;12.50;;
68108;SDS011;54893;49.864;19.084;2023-08-21T07:26:04;20.23;;;13.27;;
68108;SDS011;54893;49.864;19.084;2023-08-21T07:31:07;19.43;;;13.40;;
68108;SDS011;54893;49.864;19.084;2023-08-21T07:36:07;18.80;;;11.90;;
68108;SDS011;54893;49.864;19.084;2023-08-21T07:41:08;18.23;;;12.97;;
68108;SDS011;54893;49.864;19.084;2023-08-21T07:46:11;20.40;;;13.02;;
68108;SDS011;54893;49.864;19.084;2023-08-21T07:51:18;21.03;;;13.17;;
68108;SDS011;54893;49.864;19.084;2023-08-21T07:56:18;20.70;;;15.75;;
68108;SDS011;54893;49.864;19.084;2023-08-21T08:01:19;20.43;;;14.63;;
68108;SDS011;54893;49.864;19.084;2023-08-21T08:06:20;20.90;;;14.38;;
68108;SDS011;54893;49.864;19.084;2023-08-21T08:11:21;18.13;;;11.90;;
68108;SDS011;54893;49.864;19.084;2023-08-21T08:16:21;19.53;;;14.87;;
68108;SDS011;54893;49.864;19.084;2023-08-21T08:21:21;20.50;;;12.67;;
68108;SDS011;54893;49.864;19.084;2023-08-21T08:26:22;19.83;;;12.80;;
68108;SDS011;54893;49.864;19.084;2023-08-21T08:31:22;21.47;;;13.03;;
68108;SDS011;54893;49.864;19.084;2023-08-21T08:36:23;20.80;;;13.60;;
68108;SDS011;54893;49.864;19.084;2023-08-21T08:41:33;18.70;;;13.40;;
68108;SDS011;54893;49.864;19.084;2023-08-21T08:47:02;18.65;;;12.57;;
68108;SDS011;54893;49.864;19.084;2023-08-21T08:52:04;20.70;;;13.80;;
68108;SDS011;54893;49.864;19.084;2023-08-21T08:57:04;17.40;;;12.90;;
68108;SDS011;54893;49.864;19.084;2023-08-21T09:02:05;19.40;;;14.47;;
68108;SDS011;54893;49.864;19.084;2023-08-21T09:07:05;20.70;;;13.60;;
68108;SDS011;54893;49.864;19.084;2023-08-21T09:12:09;18.37;;;12.63;;
68108;SDS011;54893;49.864;19.084;2023-08-21T09:17:13;19.73;;;13.27;;
68108;SDS011;54893;49.864;19.084;2023-08-21T09:22:14;21.52;;;14.07;;
68108;SDS011;54893;49.864;19.084;2023-08-21T09:27:16;21.03;;;13.53;;
68108;SDS011;54893;49.864;19.084;2023-08-21T09:32:17;20.10;;;13.13;;
68108;SDS011;54893;49.864;19.084;2023-08-21T09:37:17;24.10;;;13.07;;
68108;SDS011;54893;49.864;19.084;2023-08-21T09:42:17;19.63;;;12.50;;
68108;SDS011;54893;49.864;19.084;2023-08-21T09:47:18;18.87;;;13.60;;
68108;SDS011;54893;49.864;19.084;2023-08-21T09:52:19;19.63;;;13.32;;
68108;SDS011;54893;49.864;19.084;2023-08-21T09:57:19;19.23;;;14.10;;
68108;SDS011;54893;49.864;19.084;2023-08-21T10:02:22;19.07;;;13.47;;
68108;SDS011;54893;49.864;19.084;2023-08-21T10:07:24;16.90;;;12.40;;
68108;SDS011;54893;49.864;19.084;2023-08-21T10:12:27;16.97;;;12.47;;
68108;SDS011;54893;49.864;19.084;2023-08-21T10:17:28;19.60;;;12.53;;
68108;SDS011;54893;49.864;19.084;2023-08-21T10:22:47;20.23;;;12.57;;
68108;SDS011;54893;49.864;19.084;2023-08-21T10:27:50;16.65;;;13.50;;
68108;SDS011;54893;49.864;19.084;2023-08-21T10:32:56;18.55;;;12.48;;
68108;SDS011;54893;49.864;19.084;2023-08-21T10:48:48;16.93;;;13.07;;
68108;SDS011;54893;49.864;19.084;2023-08-21T10:53:49;20.38;;;14.57;;
68108;SDS011;54893;49.864;19.084;2023-08-21T10:58:49;16.70;;;13.07;;
68108;SDS011;54893;49.864;19.084;2023-08-21T11:03:51;19.27;;;13.90;;
68108;SDS011;54893;49.864;19.084;2023-08-21T11:08:51;20.67;;;13.77;;
68108;SDS011;54893;49.864;19.084;2023-08-21T11:13:52;18.60;;;14.03;;
68108;SDS011;54893;49.864;19.084;2023-08-21T11:18:53;18.37;;;13.67;;
68108;SDS011;54893;49.864;19.084;2023-08-21T11:23:54;19.40;;;12.85;;
68108;SDS011;54893;49.864;19.084;2023-08-21T11:28:54;21.70;;;12.50;;
68108;SDS011;54893;49.864;19.084;2023-08-21T11:33:56;16.42;;;11.85;;
68108;SDS011;54893;49.864;19.084;2023-08-21T11:38:59;21.20;;;14.60;;
68108;SDS011;54893;49.864;19.084;2023-08-21T11:44:02;19.47;;;14.07;;
68108;SDS011;54893;49.864;19.084;2023-08-21T11:49:08;21.30;;;15.25;;
68108;SDS011;54893;49.864;19.084;2023-08-21T11:54:08;19.20;;;14.00;;
68108;SDS011;54893;49.864;19.084;2023-08-21T11:59:09;17.67;;;14.18;;
68108;SDS011;54893;49.864;19.084;2023-08-21T12:04:14;22.67;;;15.90;;
68108;SDS011;54893;49.864;19.084;2023-08-21T12:09:15;22.88;;;15.02;;
68108;SDS011;54893;49.864;19.084;2023-08-21T12:14:15;21.23;;;14.40;;
68108;SDS011;54893;49.864;19.084;2023-08-21T12:19:16;19.67;;;13.88;;
68108;SDS011;54893;49.864;19.084;2023-08-21T12:24:17;22.65;;;14.57;;
68108;SDS011;54893;49.864;19.084;2023-08-21T12:29:17;19.50;;;14.97;;
68108;SDS011;54893;49.864;19.084;2023-08-21T12:34:17;24.85;;;15.90;;
68108;SDS011;54893;49.864;19.084;2023-08-21T12:39:18;23.27;;;16.30;;
68108;SDS011;54893;49.864;19.084;2023-08-21T12:44:18;21.80;;;16.35;;
68108;SDS011;54893;49.864;19.084;2023-08-21T12:49:18;21.50;;;15.75;;
68108;SDS011;54893;49.864;19.084;2023-08-21T12:54:19;21.87;;;16.17;;
68108;SDS011;54893;49.864;19.084;2023-08-21T12:59:19;24.95;;;15.90;;
68108;SDS011;54893;49.864;19.084;2023-08-21T13:04:19;19.97;;;15.93;;
68108;SDS011;54893;49.864;19.084;2023-08-21T13:09:20;20.90;;;15.87;;
68108;SDS011;54893;49.864;19.084;2023-08-21T13:14:21;23.90;;;15.57;;
68108;SDS011;54893;49.864;19.084;2023-08-21T13:19:21;23.10;;;15.17;;
68108;SDS011;54893;49.864;19.084;2023-08-21T13:24:21;19.43;;;14.60;;
68108;SDS011;54893;49.864;19.084;2023-08-21T13:29:22;22.10;;;14.50;;
68108;SDS011;54893;49.864;19.084;2023-08-21T13:34:23;18.33;;;12.95;;
68108;SDS011;54893;49.864;19.084;2023-08-21T13:39:23;16.42;;;10.98;;
68108;SDS011;54893;49.864;19.084;2023-08-21T13:44:24;13.87;;;9.97;;
68108;SDS011;54893;49.864;19.084;2023-08-21T13:49:24;17.00;;;9.73;;
68108;SDS011;54893;49.864;19.084;2023-08-21T13:54:25;13.17;;;10.60;;
68108;SDS011;54893;49.864;19.084;2023-08-21T13:59:25;13.97;;;10.50;;
68108;SDS011;54893;49.864;19.084;2023-08-21T14:04:25;16.43;;;10.93;;
68108;SDS011;54893;49.864;19.084;2023-08-21T14:09:26;14.95;;;11.10;;
68108;SDS011;54893;49.864;19.084;2023-08-21T14:14:26;14.97;;;11.27;;
68108;SDS011;54893;49.864;19.084;2023-08-21T14:19:26;15.77;;;11.05;;
68108;SDS011;54893;49.864;19.084;2023-08-21T14:24:27;15.17;;;11.50;;
68108;SDS011;54893;49.864;19.084;2023-08-21T14:29:27;15.53;;;10.97;;
68108;SDS011;54893;49.864;19.084;2023-08-21T14:34:27;15.00;;;11.00;;
68108;SDS011;54893;49.864;19.084;2023-08-21T14:39:28;14.07;;;11.33;;
68108;SDS011;54893;49.864;19.084;2023-08-21T14:44:28;16.60;;;11.27;;
68108;SDS011;54893;49.864;19.084;2023-08-21T14:49:29;12.63;;;11.10;;
68108;SDS011;54893;49.864;19.084;2023-08-21T14:54:29;14.83;;;10.83;;
68108;SDS011;54893;49.864;19.084;2023-08-21T14:59:30;15.30;;;11.90;;
68108;SDS011;54893;49.864;19.084;2023-08-21T15:04:31;14.43;;;11.87;;
68108;SDS011;54893;49.864;19.084;2023-08-21T15:09:31;13.73;;;12.10;;
68108;SDS011;54893;49.864;19.084;2023-08-21T15:14:31;13.67;;;12.20;;
68108;SDS011;54893;49.864;19.084;2023-08-21T15:19:32;17.75;;;12.60;;
68108;SDS011;54893;49.864;19.084;2023-08-21T15:24:32;16.40;;;12.35;;
68108;SDS011;54893;49.864;19.084;2023-08-21T15:29:33;18.20;;;11.83;;
68108;SDS011;54893;49.864;19.084;2023-08-21T15:34:33;15.90;;;11.57;;
68108;SDS011;54893;49.864;19.084;2023-08-21T15:39:33;14.80;;;11.70;;
68108;SDS011;54893;49.864;19.084;2023-08-21T15:44:34;13.93;;;12.23;;
68108;SDS011;54893;49.864;19.084;2023-08-21T15:49:34;15.43;;;12.30;;
68108;SDS011;54893;49.864;19.084;2023-08-21T15:54:37;26.63;;;11.82;;
68108;SDS011;54893;49.864;19.084;2023-08-21T15:59:37;18.67;;;11.90;;
68108;SDS011;54893;49.864;19.084;2023-08-21T16:04:38;16.50;;;11.73;;
68108;SDS011;54893;49.864;19.084;2023-08-21T16:09:39;15.32;;;11.75;;
68108;SDS011;54893;49.864;19.084;2023-08-21T16:14:39;16.00;;;12.90;;
68108;SDS011;54893;49.864;19.084;2023-08-21T16:19:39;15.15;;;12.95;;
68108;SDS011;54893;49.864;19.084;2023-08-21T16:24:40;23.53;;;12.80;;
68108;SDS011;54893;49.864;19.084;2023-08-21T16:29:40;20.43;;;13.23;;
68108;SDS011;54893;49.864;19.084;2023-08-21T16:34:41;21.00;;;14.45;;
68108;SDS011;54893;49.864;19.084;2023-08-21T16:39:41;22.27;;;14.10;;
68108;SDS011;54893;49.864;19.084;2023-08-21T16:44:41;27.93;;;15.57;;
68108;SDS011;54893;49.864;19.084;2023-08-21T16:49:42;30.67;;;18.63;;
68108;SDS011;54893;49.864;19.084;2023-08-21T16:54:42;30.65;;;17.35;;
68108;SDS011;54893;49.864;19.084;2023-08-21T16:59:42;24.13;;;17.92;;
68108;SDS011;54893;49.864;19.084;2023-08-21T17:04:43;27.13;;;18.47;;
68108;SDS011;54893;49.864;19.084;2023-08-21T17:09:43;26.42;;;17.77;;
68108;SDS011;54893;49.864;19.084;2023-08-21T17:14:45;28.48;;;19.65;;
68108;SDS011;54893;49.864;19.084;2023-08-21T17:19:46;28.87;;;20.23;;
68108;SDS011;54893;49.864;19.084;2023-08-21T17:24:46;31.10;;;20.43;;
68108;SDS011;54893;49.864;19.084;2023-08-21T17:29:46;31.50;;;21.23;;
68108;SDS011;54893;49.864;19.084;2023-08-21T17:34:47;34.23;;;22.17;;
68108;SDS011;54893;49.864;19.084;2023-08-21T17:39:47;30.42;;;20.75;;
68108;SDS011;54893;49.864;19.084;2023-08-21T17:44:47;33.23;;;23.30;;
68108;SDS011;54893;49.864;19.084;2023-08-21T17:49:48;34.73;;;21.90;;
68108;SDS011;54893;49.864;19.084;2023-08-21T17:54:48;35.85;;;23.73;;
68108;SDS011;54893;49.864;19.084;2023-08-21T17:59:48;35.07;;;22.60;;
68108;SDS011;54893;49.864;19.084;2023-08-21T18:04:49;34.93;;;23.30;;
68108;SDS011;54893;49.864;19.084;2023-08-21T18:09:49;33.07;;;22.37;;
68108;SDS011;54893;49.864;19.084;2023-08-21T18:14:50;36.47;;;23.80;;
68108;SDS011;54893;49.864;19.084;2023-08-21T18:19:50;31.08;;;21.45;;
68108;SDS011;54893;49.864;19.084;2023-08-21T18:24:50;30.80;;;20.90;;
68108;SDS011;54893;49.864;19.084;2023-08-21T18:29:51;33.55;;;20.33;;
68108;SDS011;54893;49.864;19.084;2023-08-21T18:34:51;28.93;;;19.60;;
68108;SDS011;54893;49.864;19.084;2023-08-21T18:39:51;31.63;;;20.63;;
68108;SDS011;54893;49.864;19.084;2023-08-21T18:44:52;28.13;;;19.67;;
68108;SDS011;54893;49.864;19.084;2023-08-21T18:49:52;29.23;;;19.73;;
68108;SDS011;54893;49.864;19.084;2023-08-21T18:54:52;31.58;;;21.27;;
68108;SDS011;54893;49.864;19.084;2023-08-21T18:59:53;28.58;;;19.90;;
68108;SDS011;54893;49.864;19.084;2023-08-21T19:04:53;34.87;;;25.00;;
68108;SDS011;54893;49.864;19.084;2023-08-21T19:09:53;45.60;;;29.25;;
68108;SDS011;54893;49.864;19.084;2023-08-21T19:14:53;43.90;;;27.77;;
68108;SDS011;54893;49.864;19.084;2023-08-21T19:19:54;36.33;;;23.57;;
68108;SDS011;54893;49.864;19.084;2023-08-21T19:24:55;40.30;;;25.35;;
68108;SDS011;54893;49.864;19.084;2023-08-21T19:29:55;44.95;;;26.63;;
68108;SDS011;54893;49.864;19.084;2023-08-21T19:34:56;41.30;;;27.13;;
68108;SDS011;54893;49.864;19.084;2023-08-21T19:39:57;40.07;;;25.63;;
68108;SDS011;54893;49.864;19.084;2023-08-21T19:44:57;41.57;;;26.27;;
68108;SDS011;54893;49.864;19.084;2023-08-21T19:49:58;44.65;;;27.30;;
68108;SDS011;54893;49.864;19.084;2023-08-21T19:54:58;42.53;;;26.50;;
68108;SDS011;54893;49.864;19.084;2023-08-21T19:59:58;39.70;;;25.88;;
68108;SDS011;54893;49.864;19.084;2023-08-21T20:04:59;40.07;;;26.03;;
68108;SDS011;54893;49.864;19.084;2023-08-21T20:09:59;44.17;;;26.23;;
68108;SDS011;54893;49.864;19.084;2023-08-21T20:14:59;42.93;;;26.20;;
68108;SDS011;54893;49.864;19.084;2023-08-21T20:19:59;46.05;;;27.98;;
68108;SDS011;54893;49.864;19.084;2023-08-21T20:25:00;46.33;;;28.40;;
68108;SDS011;54893;49.864;19.084;2023-08-21T20:30:02;50.78;;;30.75;;
68108;SDS011;54893;49.864;19.084;2023-08-21T20:35:05;51.73;;;31.23;;
68108;SDS011;54893;49.864;19.084;2023-08-21T20:40:06;50.92;;;30.48;;
68108;SDS011;54893;49.864;19.084;2023-08-21T20:45:09;50.10;;;30.23;;
68108;SDS011;54893;49.864;19.084;2023-08-21T20:50:09;51.95;;;30.40;;
68108;SDS011;54893;49.864;19.084;2023-08-21T20:55:10;52.10;;;30.37;;
68108;SDS011;54893;49.864;19.084;2023-08-21T21:00:10;49.00;;;29.67;;
68108;SDS011;54893;49.864;19.084;2023-08-21T21:05:13;53.57;;;31.13;;
68108;SDS011;54893;49.864;19.084;2023-08-21T21:10:14;47.23;;;29.53;;
68108;SDS011;54893;49.864;19.084;2023-08-21T21:15:14;47.40;;;29.02;;
68108;SDS011;54893;49.864;19.084;2023-08-21T21:20:15;49.13;;;28.23;;
68108;SDS011;54893;49.864;19.084;2023-08-21T21:25:15;44.03;;;28.05;;
68108;SDS011;54893;49.864;19.084;2023-08-21T21:30:16;45.53;;;28.53;;
68108;SDS011;54893;49.864;19.084;2023-08-21T21:35:17;49.00;;;28.80;;
68108;SDS011;54893;49.864;19.084;2023-08-21T21:40:17;48.30;;;29.00;;
68108;SDS011;54893;49.864;19.084;2023-08-21T21:45:17;52.50;;;30.20;;
68108;SDS011;54893;49.864;19.084;2023-08-21T21:50:18;53.80;;;28.97;;
68108;SDS011;54893;49.864;19.084;2023-08-21T21:55:18;55.38;;;30.50;;
68108;SDS011;54893;49.864;19.084;2023-08-21T22:00:20;44.47;;;25.10;;
68108;SDS011;54893;49.864;19.084;2023-08-21T22:05:20;38.00;;;23.87;;
68108;SDS011;54893;49.864;19.084;2023-08-21T22:10:21;50.08;;;29.58;;
68108;SDS011;54893;49.864;19.084;2023-08-21T22:15:21;54.13;;;30.13;;
68108;SDS011;54893;49.864;19.084;2023-08-21T22:20:22;201.02;;;34.55;;
68108;SDS011;54893;49.864;19.084;2023-08-21T22:25:22;67.85;;;29.95;;
68108;SDS011;54893;49.864;19.084;2023-08-21T22:30:23;60.30;;;32.42;;
68108;SDS011;54893;49.864;19.084;2023-08-21T22:35:23;50.37;;;28.80;;
68108;SDS011;54893;49.864;19.084;2023-08-21T22:40:24;48.40;;;27.40;;
68108;SDS011;54893;49.864;19.084;2023-08-21T22:45:28;49.83;;;28.37;;
68108;SDS011;54893;49.864;19.084;2023-08-21T22:50:29;52.72;;;29.08;;
68108;SDS011;54893;49.864;19.084;2023-08-21T22:55:29;53.03;;;29.83;;
68108;SDS011;54893;49.864;19.084;2023-08-21T23:00:32;92.67;;;30.43;;
68108;SDS011;54893;49.864;19.084;2023-08-21T23:05:33;59.00;;;29.55;;
68108;SDS011;54893;49.864;19.084;2023-08-21T23:10:33;127.90;;;30.67;;
68108;SDS011;54893;49.864;19.084;2023-08-21T23:15:33;56.25;;;30.75;;
68108;SDS011;54893;49.864;19.084;2023-08-21T23:20:34;57.03;;;30.00;;
68108;SDS011;54893;49.864;19.084;2023-08-21T23:25:34;55.53;;;29.85;;
68108;SDS011;54893;49.864;19.084;2023-08-21T23:30:37;56.45;;;30.08;;
68108;SDS011;54893;49.864;19.084;2023-08-21T23:35:38;58.50;;;31.00;;
68108;SDS011;54893;49.864;19.084;2023-08-21T23:40:39;58.67;;;30.57;;
68108;SDS011;54893;49.864;19.084;2023-08-21T23:45:40;58.75;;;31.33;;
68108;SDS011;54893;49.864;19.084;2023-08-21T23:50:40;62.57;;;31.50;;
68108;SDS011;54893;49.864;19.084;2023-08-21T23:55:41;59.23;;;30.57;;
